Castile, New York
Current Conditions -  °F | °C
As of 3:54 AM on Friday 28 Nov 2014 (Local Time) from KDSV Reporting Station
Overcast Overcast  
Wind Chill: 17°   Ceiling: 3400
Heat Index: 26°   Visibility: 9mi
Dew Point: 18°   Wind: 9mph
Humidity: 71%   Direction: 310°NW
Pressure: 30.18"   Gusts: NA
Location:  42.63°N, 78.05°W
Report Text: KDSV 280854Z AUTO 31008KT 9SM FEW028 OVC034 M03/M08 A3018 RMK AO2 SNE49 SLP237 P0000 60000 T10331078 51018
Loading
Personal Weather Stations






























Interactive Weather Map New forecast layout! Learn more

10-Day Weather Forecast

Advertisements
Track Severe Weather on mobile